createdAt,value
2022-10-18T00:02:12.038Z,53.89
2022-10-18T00:04:38.650Z,54.00
2022-10-18T00:07:05.306Z,53.97
2022-10-18T00:09:31.868Z,54.16
2022-10-18T00:11:58.498Z,54.14
2022-10-18T00:14:25.057Z,54.38
2022-10-18T00:16:51.581Z,54.54
2022-10-18T00:19:18.074Z,54.31
2022-10-18T00:24:16.037Z,54.42
2022-10-18T00:26:42.614Z,54.47
2022-10-18T00:29:14.345Z,54.26
2022-10-18T00:31:40.944Z,54.64
2022-10-18T00:34:12.116Z,54.35
2022-10-18T00:36:38.796Z,54.65
2022-10-18T00:39:07.237Z,54.59
2022-10-18T00:41:36.171Z,54.50
2022-10-18T00:44:27.786Z,54.51
2022-10-18T00:47:08.477Z,54.47
2022-10-18T00:49:39.630Z,54.88
2022-10-18T00:52:21.484Z,55.00
2022-10-18T00:54:50.169Z,54.93
2022-10-18T00:57:17.317Z,54.98
2022-10-18T00:59:45.926Z,55.16
2022-10-18T01:02:15.107Z,54.78
2022-10-18T01:04:41.724Z,54.78
2022-10-18T01:07:26.375Z,55.21
2022-10-18T01:09:52.896Z,55.24
2022-10-18T01:12:41.036Z,55.29
2022-10-18T01:15:30.533Z,55.50
2022-10-18T01:18:16.404Z,55.44
2022-10-18T01:21:01.733Z,55.80
2022-10-18T01:23:37.478Z,55.65
2022-10-18T01:26:19.235Z,55.42
2022-10-18T01:28:48.761Z,55.70
2022-10-18T01:31:21.424Z,55.87
2022-10-18T01:33:53.942Z,55.93
2022-10-18T01:36:39.127Z,56.24
2022-10-18T01:39:08.738Z,56.31
2022-10-18T01:41:38.667Z,56.05
2022-10-18T01:44:09.496Z,56.30
2022-10-18T01:46:38.919Z,56.32
2022-10-18T01:49:05.886Z,56.63
2022-10-18T01:51:33.411Z,57.02
2022-10-18T01:54:00.885Z,56.70
2022-10-18T01:56:30.303Z,56.97
2022-10-18T01:59:23.908Z,57.34
2022-10-18T02:02:09.205Z,57.19
2022-10-18T02:05:00.162Z,57.32
2022-10-18T02:07:32.907Z,57.52
2022-10-18T02:10:34.168Z,57.40
2022-10-18T02:13:02.031Z,57.63
2022-10-18T02:15:34.831Z,57.61
2022-10-18T02:18:05.661Z,57.59
2022-10-18T02:20:32.820Z,57.64
2022-10-18T02:23:01.412Z,57.96
2022-10-18T02:25:31.374Z,57.74
2022-10-18T02:27:58.656Z,57.88
2022-10-18T02:30:50.105Z,57.75
2022-10-18T02:33:34.599Z,57.85
2022-10-18T02:36:10.624Z,58.23
2022-10-18T02:38:39.519Z,58.28
2022-10-18T02:41:06.328Z,58.21
2022-10-18T02:43:32.929Z,57.96
2022-10-18T02:45:59.811Z,57.95
2022-10-18T02:48:26.350Z,57.94
2022-10-18T02:50:52.896Z,58.57
2022-10-18T02:53:19.431Z,58.13
2022-10-18T02:55:45.946Z,58.27
2022-10-18T02:58:12.492Z,58.45
2022-10-18T03:00:39.023Z,58.63
2022-10-18T03:03:05.716Z,58.45
2022-10-18T03:05:32.403Z,58.89
2022-10-18T03:07:59.112Z,59.26
2022-10-18T03:10:25.624Z,59.12
2022-10-18T03:12:52.213Z,59.45
2022-10-18T03:15:18.725Z,59.54
2022-10-18T03:17:45.293Z,59.69
2022-10-18T03:20:11.977Z,59.97
2022-10-18T03:22:38.483Z,60.10
2022-10-18T03:25:05.378Z,59.91
2022-10-18T03:27:32.218Z,59.96
2022-10-18T03:29:59.911Z,60.21
2022-10-18T03:32:26.549Z,60.35
2022-10-18T03:34:53.118Z,60.44
2022-10-18T03:37:19.668Z,60.84
2022-10-18T03:39:46.183Z,60.97
2022-10-18T03:42:12.742Z,60.96
2022-10-18T03:44:39.242Z,61.30
2022-10-18T03:47:05.777Z,61.31
2022-10-18T03:52:03.959Z,61.49
2022-10-18T03:54:30.678Z,62.08
2022-10-18T03:56:57.363Z,61.93
2022-10-18T03:59:23.970Z,61.91
2022-10-18T04:01:50.648Z,62.13
2022-10-18T04:04:17.258Z,62.32
2022-10-18T04:06:43.808Z,62.81
2022-10-18T04:09:10.636Z,62.71
2022-10-18T04:11:37.321Z,62.70
2022-10-18T04:14:03.903Z,62.71
2022-10-18T04:16:30.756Z,62.72
2022-10-18T04:18:57.364Z,62.93
2022-10-18T04:21:24.024Z,63.09
2022-10-18T04:23:51.293Z,63.48
2022-10-18T04:26:17.869Z,64.29
2022-10-18T04:28:44.961Z,64.33
2022-10-18T04:31:12.085Z,64.18
2022-10-18T04:33:38.912Z,64.53
2022-10-18T04:36:05.724Z,63.96
2022-10-18T04:38:32.288Z,64.35
2022-10-18T04:40:58.861Z,64.29
2022-10-18T04:43:25.555Z,64.71
2022-10-18T04:45:52.169Z,64.96
2022-10-18T04:48:18.798Z,64.63
2022-10-18T04:50:48.798Z,64.59
2022-10-18T04:53:15.975Z,64.42
2022-10-18T04:55:50.215Z,64.23
2022-10-18T04:58:18.270Z,64.27
2022-10-18T05:00:44.922Z,64.50
2022-10-18T05:03:12.811Z,64.17
2022-10-18T05:06:00.119Z,64.11
2022-10-18T05:08:26.201Z,63.92
2022-10-18T05:10:52.842Z,63.66
2022-10-18T05:13:19.549Z,64.00
2022-10-18T05:15:49.250Z,63.92
2022-10-18T05:18:15.855Z,63.90
2022-10-18T05:20:42.395Z,63.64
2022-10-18T05:23:11.782Z,63.68
2022-10-18T05:25:42.582Z,63.72
2022-10-18T05:28:34.076Z,63.88
2022-10-18T05:30:56.424Z,64.29
2022-10-18T05:33:22.956Z,64.35
2022-10-18T05:35:49.550Z,64.58
2022-10-18T05:38:16.101Z,64.45
2022-10-18T05:40:42.748Z,64.12
2022-10-18T05:43:09.310Z,64.13
2022-10-18T05:45:35.969Z,64.05
2022-10-18T05:48:02.846Z,63.98
2022-10-18T05:50:29.381Z,63.85
2022-10-18T05:53:02.759Z,63.53
2022-10-18T05:55:39.318Z,63.27
2022-10-18T05:58:05.890Z,62.84
2022-10-18T06:00:32.878Z,62.65
2022-10-18T06:03:00.514Z,61.70
2022-10-18T06:05:28.067Z,60.78
2022-10-18T06:07:56.040Z,60.10
2022-10-18T06:10:22.639Z,58.91
2022-10-18T06:12:49.349Z,58.41
2022-10-18T06:15:16.062Z,57.80
2022-10-18T06:17:42.605Z,57.86
2022-10-18T06:20:09.635Z,57.85
2022-10-18T06:22:36.373Z,58.31
2022-10-18T06:25:02.994Z,58.39
2022-10-18T06:27:31.718Z,57.87
2022-10-18T06:29:58.647Z,57.80
2022-10-18T06:32:25.216Z,56.64
2022-10-18T06:34:51.804Z,56.64
2022-10-18T06:37:18.367Z,55.84
2022-10-18T06:39:44.916Z,56.03
2022-10-18T06:42:11.456Z,55.28
2022-10-18T06:44:38.307Z,55.38
2022-10-18T06:47:04.896Z,55.28
2022-10-18T06:49:31.413Z,55.27
2022-10-18T06:51:57.970Z,54.82
2022-10-18T06:54:24.487Z,55.09
2022-10-18T06:56:51.062Z,55.31
2022-10-18T06:59:18.270Z,55.10
2022-10-18T07:01:44.881Z,55.27
2022-10-18T07:04:11.406Z,54.51
2022-10-18T07:06:37.988Z,54.80
2022-10-18T07:09:04.941Z,53.47
2022-10-18T07:11:31.743Z,52.82
2022-10-18T07:14:03.260Z,52.22
2022-10-18T07:16:30.442Z,52.41
2022-10-18T07:18:57.360Z,52.09
2022-10-18T07:21:25.897Z,51.87
2022-10-18T07:23:53.248Z,50.79
2022-10-18T07:26:24.304Z,50.47
2022-10-18T07:28:55.250Z,50.56
2022-10-18T07:31:23.114Z,50.69
2022-10-18T07:33:50.077Z,50.60
2022-10-18T07:36:17.305Z,50.41
2022-10-18T07:38:44.858Z,50.37
2022-10-18T07:41:12.854Z,50.13
2022-10-18T07:43:45.920Z,50.13
2022-10-18T07:46:14.064Z,49.76
2022-10-18T07:48:41.001Z,49.06
2022-10-18T07:51:07.765Z,48.31
2022-10-18T07:53:34.668Z,48.17
2022-10-18T07:56:08.770Z,47.40
2022-10-18T07:58:36.300Z,47.65
2022-10-18T08:01:07.564Z,48.01
2022-10-18T08:03:34.905Z,47.45
2022-10-18T08:06:02.107Z,46.89
2022-10-18T08:08:29.789Z,46.26
2022-10-18T08:11:01.537Z,46.31
2022-10-18T08:13:28.076Z,45.78
2022-10-18T08:16:02.811Z,45.63
2022-10-18T08:18:29.788Z,45.46
2022-10-18T08:20:56.309Z,45.99
2022-10-18T08:23:23.041Z,45.57
2022-10-18T08:25:49.569Z,46.36
2022-10-18T08:28:17.397Z,45.67
2022-10-18T08:30:44.229Z,45.40
2022-10-18T08:33:11.004Z,45.42
2022-10-18T08:35:37.791Z,45.62
2022-10-18T08:38:04.458Z,45.62
2022-10-18T08:40:33.893Z,45.68
2022-10-18T08:43:31.886Z,45.22
2022-10-18T08:45:59.298Z,45.08
2022-10-18T08:48:35.430Z,44.88
2022-10-18T08:51:05.142Z,44.71
2022-10-18T08:53:55.141Z,44.99
2022-10-18T08:56:24.305Z,45.11
2022-10-18T08:58:51.018Z,44.71
2022-10-18T09:04:34.908Z,44.14
2022-10-18T09:07:22.814Z,43.70
2022-10-18T09:10:01.562Z,44.12
2022-10-18T09:12:38.646Z,43.86
2022-10-18T09:15:17.571Z,43.66
2022-10-18T09:18:06.411Z,44.17
2022-10-18T09:20:54.948Z,44.32
2022-10-18T09:23:30.441Z,44.08
2022-10-18T09:26:17.400Z,44.09
2022-10-18T09:29:10.832Z,43.53
2022-10-18T09:32:03.712Z,44.27
2022-10-18T09:34:39.355Z,43.63
2022-10-18T09:37:16.718Z,43.31
2022-10-18T09:39:45.499Z,44.81
2022-10-18T09:42:26.773Z,45.00
2022-10-18T09:45:08.608Z,44.03
2022-10-18T09:47:41.209Z,44.27
2022-10-18T09:50:25.488Z,44.05
2022-10-18T09:53:06.420Z,43.52
2022-10-18T09:55:38.524Z,42.57
2022-10-18T09:58:08.041Z,42.81
2022-10-18T10:00:44.705Z,42.61
2022-10-18T10:03:13.271Z,42.84
2022-10-18T10:05:39.908Z,44.08
2022-10-18T10:08:06.819Z,44.67
2022-10-18T10:10:35.046Z,43.17
2022-10-18T10:13:16.006Z,43.81
2022-10-18T10:15:57.547Z,41.90
2022-10-18T10:18:33.321Z,42.77
2022-10-18T10:21:03.558Z,43.21
2022-10-18T10:23:32.670Z,44.36
2022-10-18T10:26:02.426Z,43.90
2022-10-18T10:28:37.441Z,42.32
2022-10-18T10:31:23.976Z,42.67
2022-10-18T10:34:02.673Z,43.36
2022-10-18T10:36:31.240Z,41.52
2022-10-18T10:39:07.286Z,40.61
2022-10-18T10:41:35.012Z,41.44
2022-10-18T10:44:04.270Z,42.47
2022-10-18T10:46:36.698Z,42.67
2022-10-18T10:49:34.921Z,42.24
2022-10-18T10:52:09.127Z,41.13
2022-10-18T10:54:51.163Z,40.13
2022-10-18T10:57:26.396Z,40.24
2022-10-18T10:59:55.432Z,40.38
2022-10-18T11:02:23.848Z,40.20
2022-10-18T11:04:54.934Z,40.69
2022-10-18T11:07:44.197Z,39.77
2022-10-18T11:10:10.697Z,40.14
2022-10-18T11:12:42.220Z,40.41
2022-10-18T11:15:14.581Z,40.75
2022-10-18T11:18:06.114Z,39.74
2022-10-18T11:20:38.320Z,40.26
2022-10-18T11:23:13.560Z,39.33
2022-10-18T11:26:00.985Z,39.85
2022-10-18T11:28:33.981Z,40.92
2022-10-18T11:31:19.511Z,39.25
2022-10-18T11:34:07.534Z,39.93
2022-10-18T11:37:32.157Z,39.36
2022-10-18T11:40:13.209Z,39.91
2022-10-18T11:43:06.693Z,40.27
2022-10-18T11:45:46.951Z,38.67
2022-10-18T11:48:50.803Z,39.56
2022-10-18T11:52:07.406Z,38.91
2022-10-18T11:55:12.245Z,39.37
2022-10-18T11:57:45.685Z,39.14
2022-10-18T12:00:24.448Z,39.69
2022-10-18T12:03:11.719Z,39.49
2022-10-18T12:05:41.370Z,38.94
2022-10-18T12:08:18.302Z,39.02
2022-10-18T12:11:04.730Z,39.62
2022-10-18T12:14:03.112Z,38.98
2022-10-18T12:16:50.498Z,39.46
2022-10-18T12:19:26.743Z,39.29
2022-10-18T12:21:58.017Z,38.66
2022-10-18T12:24:32.162Z,38.51
2022-10-18T12:27:00.671Z,38.40
2022-10-18T12:29:36.995Z,39.25
2022-10-18T12:32:10.126Z,38.60
2022-10-18T12:34:40.822Z,40.09
2022-10-18T12:37:35.556Z,40.46
2022-10-18T12:40:14.236Z,40.00
2022-10-18T12:42:49.209Z,39.31
2022-10-18T12:45:46.256Z,39.21
2022-10-18T12:48:42.677Z,40.58
2022-10-18T12:51:21.540Z,40.65
2022-10-18T12:53:54.858Z,41.02
2022-10-18T12:56:27.610Z,40.75
2022-10-18T12:59:15.826Z,40.27
2022-10-18T13:01:51.668Z,40.27
2022-10-18T13:04:38.290Z,40.93
2022-10-18T13:07:08.311Z,40.00
2022-10-18T13:09:42.885Z,39.82
2022-10-18T13:12:09.223Z,39.55
2022-10-18T13:15:12.418Z,40.25
2022-10-18T13:18:00.416Z,40.46
2022-10-18T13:21:03.021Z,40.10
2022-10-18T13:23:54.330Z,40.09
2022-10-18T13:26:59.098Z,40.86
2022-10-18T13:29:50.221Z,40.53
2022-10-18T13:32:26.137Z,41.33
2022-10-18T13:34:53.017Z,41.29
2022-10-18T13:37:25.591Z,41.54
2022-10-18T13:40:22.133Z,41.85
2022-10-18T13:42:48.705Z,40.88
2022-10-18T13:45:45.339Z,41.71
2022-10-18T13:48:30.310Z,42.03
2022-10-18T13:51:12.514Z,41.93
2022-10-18T13:54:01.346Z,41.90
2022-10-18T13:56:51.439Z,41.75
2022-10-18T13:59:54.449Z,41.38
2022-10-18T14:02:51.047Z,42.17
2022-10-18T14:05:38.670Z,41.73
2022-10-18T14:08:14.243Z,41.44
2022-10-18T14:11:01.913Z,40.87
2022-10-18T14:13:42.713Z,41.15
2022-10-18T14:16:49.007Z,41.39
2022-10-18T14:19:46.371Z,41.80
2022-10-18T14:22:27.544Z,42.78
2022-10-18T14:24:59.240Z,42.82
2022-10-18T14:27:28.267Z,42.03
2022-10-18T14:30:10.351Z,41.64
2022-10-18T14:32:37.189Z,41.97
2022-10-18T14:37:53.895Z,42.58
2022-10-18T14:40:39.106Z,42.54
2022-10-18T14:43:19.513Z,42.79
2022-10-18T14:45:46.180Z,43.31
2022-10-18T14:48:22.743Z,43.22
2022-10-18T14:51:00.464Z,43.46
2022-10-18T14:53:37.495Z,43.07
2022-10-18T14:56:07.388Z,42.99
2022-10-18T14:58:37.409Z,43.17
2022-10-18T15:01:06.913Z,43.44
2022-10-18T15:03:35.882Z,43.45
2022-10-18T15:06:05.857Z,43.80
2022-10-18T15:08:42.925Z,44.06
2022-10-18T15:11:14.310Z,44.19
2022-10-18T15:14:08.892Z,44.46
2022-10-18T15:16:38.579Z,44.77
2022-10-18T15:19:06.518Z,44.93
2022-10-18T15:21:35.493Z,44.78
2022-10-18T15:24:27.071Z,45.02
2022-10-18T15:26:56.533Z,45.23
2022-10-18T15:29:25.003Z,45.05
2022-10-18T15:31:52.556Z,45.12
2022-10-18T15:34:26.931Z,45.04
2022-10-18T15:36:57.172Z,45.50
2022-10-18T15:39:26.996Z,45.42
2022-10-18T15:41:55.896Z,45.54
2022-10-18T15:44:34.682Z,45.12
2022-10-18T15:47:13.280Z,45.46
2022-10-18T15:49:46.276Z,45.98
2022-10-18T15:52:21.960Z,45.14
2022-10-18T15:57:20.693Z,45.12
2022-10-18T15:59:54.746Z,45.04
2022-10-18T16:02:21.509Z,44.84
2022-10-18T16:04:48.253Z,45.11
2022-10-18T16:07:14.963Z,44.92
2022-10-18T16:09:41.520Z,45.61
2022-10-18T16:12:08.117Z,45.66
2022-10-18T16:14:35.268Z,45.91
2022-10-18T16:17:05.430Z,45.83
2022-10-18T16:19:33.341Z,45.49
2022-10-18T16:22:05.940Z,45.69
2022-10-18T16:24:33.379Z,45.97
2022-10-18T16:26:59.941Z,45.80
2022-10-18T16:29:28.713Z,46.13
2022-10-18T16:31:58.266Z,46.36
2022-10-18T16:34:27.082Z,45.89
2022-10-18T16:36:54.080Z,46.34
2022-10-18T16:39:21.780Z,46.94
2022-10-18T16:41:48.637Z,47.04
2022-10-18T16:44:16.805Z,47.71
2022-10-18T16:46:43.670Z,47.73
2022-10-18T16:49:23.896Z,48.53
2022-10-18T16:51:53.172Z,48.58
2022-10-18T16:54:19.781Z,48.39
2022-10-18T16:56:47.826Z,48.59
2022-10-18T16:59:27.598Z,48.33
2022-10-18T17:01:54.218Z,48.78
2022-10-18T17:04:20.836Z,49.12
2022-10-18T17:06:49.125Z,49.28
2022-10-18T17:09:16.247Z,49.12
2022-10-18T17:11:43.200Z,49.81
2022-10-18T17:14:09.757Z,49.26
2022-10-18T17:16:37.224Z,49.47
2022-10-18T17:19:07.248Z,49.32
2022-10-18T17:21:34.207Z,49.06
2022-10-18T17:24:05.961Z,48.75
2022-10-18T17:26:34.056Z,49.17
2022-10-18T17:29:05.991Z,49.37
2022-10-18T17:31:33.283Z,49.63
2022-10-18T17:34:01.913Z,50.31
2022-10-18T17:36:30.162Z,50.99
2022-10-18T17:38:57.157Z,51.36
2022-10-18T17:41:23.975Z,51.50
2022-10-18T17:43:50.556Z,51.99
2022-10-18T17:46:18.079Z,52.23
2022-10-18T17:48:45.715Z,52.39
2022-10-18T17:51:14.840Z,53.05
2022-10-18T17:53:41.572Z,52.72
2022-10-18T17:56:09.027Z,51.51
2022-10-18T17:58:35.874Z,52.29
2022-10-18T18:01:17.610Z,52.74
2022-10-18T18:03:45.008Z,52.78
2022-10-18T18:06:22.995Z,52.99
2022-10-18T18:08:50.066Z,53.60
2022-10-18T18:11:18.608Z,53.51
2022-10-18T18:13:45.579Z,54.05
2022-10-18T18:16:18.491Z,54.24
2022-10-18T18:18:46.283Z,54.54
2022-10-18T18:21:13.441Z,54.10
2022-10-18T18:23:40.148Z,53.77
2022-10-18T18:26:06.990Z,54.24
2022-10-18T18:28:34.804Z,53.89
2022-10-18T18:31:08.930Z,53.10
2022-10-18T18:33:36.611Z,53.37
2022-10-18T18:36:07.062Z,53.63
2022-10-18T18:38:35.704Z,53.33
2022-10-18T18:41:07.796Z,53.67
2022-10-18T18:43:35.515Z,54.67
2022-10-18T18:46:02.787Z,55.48
2022-10-18T18:48:32.304Z,54.83
2022-10-18T18:50:58.854Z,54.99
2022-10-18T18:53:28.655Z,55.79
2022-10-18T18:56:04.540Z,56.03
2022-10-18T18:58:31.829Z,56.29
2022-10-18T19:01:00.717Z,55.17
2022-10-18T19:03:27.442Z,55.01
2022-10-18T19:06:03.810Z,55.12
2022-10-18T19:08:30.774Z,55.51
2022-10-18T19:10:57.371Z,56.01
2022-10-18T19:13:23.968Z,56.86
2022-10-18T19:15:50.998Z,56.50
2022-10-18T19:18:23.101Z,57.61
2022-10-18T19:20:50.550Z,58.20
2022-10-18T19:23:17.165Z,58.65
2022-10-18T19:25:43.716Z,58.92
2022-10-18T19:28:10.277Z,58.80
2022-10-18T19:30:36.912Z,59.09
2022-10-18T19:33:04.750Z,59.55
2022-10-18T19:35:31.341Z,59.99
2022-10-18T19:37:57.900Z,61.14
2022-10-18T19:40:24.608Z,62.15
2022-10-18T19:42:51.149Z,61.99
2022-10-18T19:45:17.694Z,61.62
2022-10-18T19:47:44.265Z,61.13
2022-10-18T19:50:10.761Z,61.25
2022-10-18T19:52:37.429Z,60.17
2022-10-18T19:55:04.330Z,59.25
2022-10-18T19:57:31.080Z,59.01
2022-10-18T19:59:59.142Z,59.90
2022-10-18T20:02:27.373Z,60.21
2022-10-18T20:04:54.016Z,60.62
2022-10-18T20:07:20.575Z,61.12
2022-10-18T20:09:48.179Z,61.41
2022-10-18T20:12:14.715Z,62.02
2022-10-18T20:14:41.263Z,62.03
2022-10-18T20:17:12.092Z,63.66
2022-10-18T20:19:38.840Z,66.21
2022-10-18T20:22:05.454Z,67.88
2022-10-18T20:24:32.006Z,68.69
2022-10-18T20:26:58.599Z,69.02
2022-10-18T20:29:25.526Z,71.78
2022-10-18T20:31:55.510Z,73.08
2022-10-18T20:34:25.896Z,71.58
2022-10-18T20:36:55.765Z,70.85
2022-10-18T20:39:22.369Z,72.35
2022-10-18T20:41:49.224Z,71.86
2022-10-18T20:44:19.435Z,71.29
2022-10-18T20:46:46.229Z,71.45
2022-10-18T20:49:15.389Z,71.73
2022-10-18T20:51:42.540Z,71.76
2022-10-18T20:54:09.945Z,72.11
2022-10-18T20:56:38.664Z,71.92
2022-10-18T20:59:09.210Z,71.45
2022-10-18T21:01:37.361Z,71.24
2022-10-18T21:04:06.042Z,72.18
2022-10-18T21:06:38.036Z,71.89
2022-10-18T21:09:07.028Z,71.86
2022-10-18T21:11:39.289Z,72.90
2022-10-18T21:14:07.483Z,74.07
2022-10-18T21:16:35.910Z,74.01
2022-10-18T21:19:20.992Z,73.82
2022-10-18T21:21:50.520Z,74.85
2022-10-18T21:24:18.491Z,74.73
2022-10-18T21:26:45.661Z,75.22
2022-10-18T21:29:12.673Z,75.55
2022-10-18T21:31:41.769Z,75.32
2022-10-18T21:34:15.639Z,76.33
2022-10-18T21:36:44.730Z,76.44
2022-10-18T21:39:15.034Z,77.26
2022-10-18T21:41:42.754Z,82.03
2022-10-18T21:44:10.894Z,89.21
2022-10-18T21:46:39.404Z,93.14
2022-10-18T21:49:06.840Z,92.37
2022-10-18T21:51:33.351Z,90.65
2022-10-18T21:53:59.918Z,89.29
2022-10-18T21:56:33.742Z,88.60
2022-10-18T21:59:00.818Z,89.30
2022-10-18T22:01:28.840Z,88.28
2022-10-18T22:03:57.120Z,86.95
2022-10-18T22:06:25.653Z,86.99
2022-10-18T22:08:54.652Z,88.88
2022-10-18T22:11:30.340Z,89.68
2022-10-18T22:13:57.526Z,89.59
2022-10-18T22:16:24.167Z,89.03
2022-10-18T22:18:51.913Z,90.89
2022-10-18T22:21:20.056Z,92.25
2022-10-18T22:23:48.716Z,92.45
2022-10-18T22:26:29.658Z,90.54
2022-10-18T22:29:02.123Z,90.75
2022-10-18T22:31:31.737Z,91.71
2022-10-18T22:34:05.109Z,91.92
2022-10-18T22:36:32.884Z,91.21
2022-10-18T22:38:59.581Z,91.04
2022-10-18T22:41:26.432Z,91.12
2022-10-18T22:43:53.396Z,92.11
2022-10-18T22:46:20.606Z,93.15
2022-10-18T22:48:47.835Z,94.13
2022-10-18T22:51:14.722Z,95.02
2022-10-18T22:53:41.697Z,94.21
2022-10-18T22:56:11.423Z,93.04
2022-10-18T22:58:37.950Z,94.36
2022-10-18T23:01:10.093Z,97.30
2022-10-18T23:03:37.993Z,98.32
2022-10-18T23:06:06.201Z,100.00
2022-10-18T23:08:33.342Z,100.00
2022-10-18T23:11:00.571Z,100.00
2022-10-18T23:13:28.053Z,100.00
2022-10-18T23:16:04.505Z,100.00
2022-10-18T23:18:32.612Z,100.00
2022-10-18T23:21:10.766Z,100.00
2022-10-18T23:23:39.349Z,100.00
2022-10-18T23:26:09.873Z,100.00
2022-10-18T23:28:38.762Z,100.00
2022-10-18T23:31:19.752Z,100.00
2022-10-18T23:33:49.248Z,100.00
2022-10-18T23:36:16.639Z,100.00
2022-10-18T23:38:43.839Z,100.00
2022-10-18T23:41:12.490Z,100.00
2022-10-18T23:43:40.121Z,100.00
2022-10-18T23:46:07.394Z,100.00
2022-10-18T23:48:34.435Z,100.00
2022-10-18T23:51:02.185Z,100.00
2022-10-18T23:53:29.096Z,100.00
2022-10-18T23:56:04.733Z,100.00
2022-10-18T23:58:33.125Z,99.97
